Terminal Aerodrome Forecast
Issued by NWS Cleveland, OH

Home | Current Version | Previous Version | Text Only | Print | Product List | Glossary Off
Versions: 1 2 3 4 5 6 7 8 9 10 11 12 13 14 15 16 17 18 19 20 21 22 23 24 25 26 27 28 29 30 31

000
FTUS41 KCLE 161700
TAFCLE
TAF
KCLE 161728Z 1618/1724 15010G20KT P6SM VCSH OVC040
      TEMPO 1619/1623 -SHRA OVC025
     FM162300 17009KT P6SM -SHRA OVC025
     FM170300 19007KT P6SM -SHRA OVC015
     FM170500 20007KT P6SM OVC007
     FM171600 31006KT P6SM OVC025
     FM171800 34007KT P6SM SKC=

USA.gov is the U.S. government's official web portal to all federal, state and local government web resources and services.